Аэропорт: Михайловка. Барнаул

ICAO: UNBB

METAR:
2019/01/21 23:00
UNBB 212300Z 21005MPS 2000 R24/P2000D SN SCT003 M02/M03 Q1022 R24/390132 NOSIG RMK QFE744
METAR:
2019/01/21 21:21
TAF UNBB 212000Z 2121/2221 22008G15MPS 3100 -SHSN DRSN SCT005 BKN020CB 
      TEMPO 2121/2206 0500 +SHSNRA SCT002 BKN010CB 
      BECMG 2203/2204 28007G12MPS